sensor_id;sensor_type;location;lat;lon;timestamp;pressure;altitude;pressure_sealevel;temperature;humidity
75536;BME280;64119;52.070;20.804;2024-02-21T00:00:18;100917.19;;;3.86;98.71
75536;BME280;64119;52.070;20.804;2024-02-21T00:03:06;100919.30;;;3.89;98.77
75536;BME280;64119;52.070;20.804;2024-02-21T00:05:34;100915.39;;;3.92;98.91
75536;BME280;64119;52.070;20.804;2024-02-21T00:08:02;100915.40;;;3.96;98.91
75536;BME280;64119;52.070;20.804;2024-02-21T00:10:31;100912.16;;;3.99;99.17
75536;BME280;64119;52.070;20.804;2024-02-21T00:13:03;100918.14;;;4.03;99.28
75536;BME280;64119;52.070;20.804;2024-02-21T00:15:31;100914.09;;;4.05;99.53
75536;BME280;64119;52.070;20.804;2024-02-21T00:17:59;100913.13;;;4.08;99.58
75536;BME280;64119;52.070;20.804;2024-02-21T00:20:27;100910.42;;;4.13;99.04
75536;BME280;64119;52.070;20.804;2024-02-21T00:22:54;100909.16;;;4.16;99.45
75536;BME280;64119;52.070;20.804;2024-02-21T00:25:22;100910.48;;;4.19;99.19
75536;BME280;64119;52.070;20.804;2024-02-21T00:27:50;100910.38;;;4.22;99.15
75536;BME280;64119;52.070;20.804;2024-02-21T00:30:18;100903.48;;;4.24;99.06
75536;BME280;64119;52.070;20.804;2024-02-21T00:32:46;100901.35;;;4.27;99.10
75536;BME280;64119;52.070;20.804;2024-02-21T00:35:14;100899.24;;;4.29;99.09
75536;BME280;64119;52.070;20.804;2024-02-21T00:37:42;100899.16;;;4.32;99.12
75536;BME280;64119;52.070;20.804;2024-02-21T00:40:10;100897.52;;;4.32;99.28
75536;BME280;64119;52.070;20.804;2024-02-21T00:42:38;100892.60;;;4.35;99.36
75536;BME280;64119;52.070;20.804;2024-02-21T00:45:07;100892.13;;;4.36;99.17
75536;BME280;64119;52.070;20.804;2024-02-21T00:47:35;100893.19;;;4.38;98.94
75536;BME280;64119;52.070;20.804;2024-02-21T00:50:04;100888.98;;;4.40;99.09
75536;BME280;64119;52.070;20.804;2024-02-21T00:52:36;100889.29;;;4.40;99.02
75536;BME280;64119;52.070;20.804;2024-02-21T00:55:05;100885.52;;;4.41;99.27
75536;BME280;64119;52.070;20.804;2024-02-21T00:57:33;100888.38;;;4.43;99.26
75536;BME280;64119;52.070;20.804;2024-02-21T01:00:02;100886.73;;;4.43;99.14
75536;BME280;64119;52.070;20.804;2024-02-21T01:02:30;100882.94;;;4.45;99.15
75536;BME280;64119;52.070;20.804;2024-02-21T01:04:59;100879.73;;;4.45;99.24
75536;BME280;64119;52.070;20.804;2024-02-21T01:07:27;100880.20;;;4.46;99.09
75536;BME280;64119;52.070;20.804;2024-02-21T01:09:55;100878.40;;;4.46;98.93
75536;BME280;64119;52.070;20.804;2024-02-21T01:12:23;100874.29;;;4.47;99.20
75536;BME280;64119;52.070;20.804;2024-02-21T01:14:51;100872.83;;;4.48;99.43
75536;BME280;64119;52.070;20.804;2024-02-21T01:17:20;100866.38;;;4.49;99.49
75536;BME280;64119;52.070;20.804;2024-02-21T01:19:47;100868.37;;;4.51;99.49
75536;BME280;64119;52.070;20.804;2024-02-21T01:22:15;100862.02;;;4.51;99.62
75536;BME280;64119;52.070;20.804;2024-02-21T01:24:44;100859.16;;;4.52;99.73
75536;BME280;64119;52.070;20.804;2024-02-21T01:27:11;100858.79;;;4.52;99.44
75536;BME280;64119;52.070;20.804;2024-02-21T01:29:39;100858.67;;;4.53;99.39
75536;BME280;64119;52.070;20.804;2024-02-21T01:32:07;100855.43;;;4.54;99.51
75536;BME280;64119;52.070;20.804;2024-02-21T01:34:35;100859.83;;;4.56;99.54
75536;BME280;64119;52.070;20.804;2024-02-21T01:37:03;100856.41;;;4.57;99.30
75536;BME280;64119;52.070;20.804;2024-02-21T01:39:33;100854.16;;;4.58;99.37
75536;BME280;64119;52.070;20.804;2024-02-21T01:42:01;100854.49;;;4.59;99.76
75536;BME280;64119;52.070;20.804;2024-02-21T01:44:28;100853.23;;;4.59;99.51
75536;BME280;64119;52.070;20.804;2024-02-21T01:46:56;100855.32;;;4.61;99.45
75536;BME280;64119;52.070;20.804;2024-02-21T01:49:24;100854.33;;;4.62;99.42
75536;BME280;64119;52.070;20.804;2024-02-21T01:51:53;100853.52;;;4.63;99.60
75536;BME280;64119;52.070;20.804;2024-02-21T01:54:21;100856.54;;;4.65;99.62
75536;BME280;64119;52.070;20.804;2024-02-21T01:56:50;100855.02;;;4.66;99.55
75536;BME280;64119;52.070;20.804;2024-02-21T01:59:19;100849.16;;;4.65;99.53
75536;BME280;64119;52.070;20.804;2024-02-21T02:01:48;100855.23;;;4.68;99.44
75536;BME280;64119;52.070;20.804;2024-02-21T02:04:18;100852.89;;;4.68;99.43
75536;BME280;64119;52.070;20.804;2024-02-21T02:06:48;100849.48;;;4.69;99.39
75536;BME280;64119;52.070;20.804;2024-02-21T02:09:16;100849.21;;;4.71;99.45
75536;BME280;64119;52.070;20.804;2024-02-21T02:11:44;100850.00;;;4.72;99.50
75536;BME280;64119;52.070;20.804;2024-02-21T02:14:12;100847.27;;;4.73;99.68
75536;BME280;64119;52.070;20.804;2024-02-21T02:16:40;100843.36;;;4.73;99.67
75536;BME280;64119;52.070;20.804;2024-02-21T02:19:08;100845.09;;;4.74;99.77
75536;BME280;64119;52.070;20.804;2024-02-21T02:21:44;100851.59;;;4.75;99.53
75536;BME280;64119;52.070;20.804;2024-02-21T02:24:13;100848.17;;;4.76;99.51
75536;BME280;64119;52.070;20.804;2024-02-21T02:26:41;100841.96;;;4.77;99.63
75536;BME280;64119;52.070;20.804;2024-02-21T02:29:09;100841.54;;;4.76;99.71
75536;BME280;64119;52.070;20.804;2024-02-21T02:31:37;100840.41;;;4.75;99.92
75536;BME280;64119;52.070;20.804;2024-02-21T02:34:06;100837.17;;;4.74;99.93
75536;BME280;64119;52.070;20.804;2024-02-21T02:36:34;100832.66;;;4.71;99.81
75536;BME280;64119;52.070;20.804;2024-02-21T02:39:02;100835.91;;;4.68;99.93
75536;BME280;64119;52.070;20.804;2024-02-21T02:41:30;100832.79;;;4.66;99.71
75536;BME280;64119;52.070;20.804;2024-02-21T02:43:57;100831.95;;;4.64;99.70
75536;BME280;64119;52.070;20.804;2024-02-21T02:46:25;100828.36;;;4.61;99.77
75536;BME280;64119;52.070;20.804;2024-02-21T02:48:53;100827.36;;;4.58;99.62
75536;BME280;64119;52.070;20.804;2024-02-21T02:51:21;100825.62;;;4.56;99.89
75536;BME280;64119;52.070;20.804;2024-02-21T02:53:49;100829.01;;;4.56;99.68
75536;BME280;64119;52.070;20.804;2024-02-21T02:56:17;100829.08;;;4.55;99.79
75536;BME280;64119;52.070;20.804;2024-02-21T02:58:45;100826.61;;;4.55;99.78
75536;BME280;64119;52.070;20.804;2024-02-21T03:01:12;100824.67;;;4.55;99.81
75536;BME280;64119;52.070;20.804;2024-02-21T03:03:41;100824.52;;;4.55;99.91
75536;BME280;64119;52.070;20.804;2024-02-21T03:06:09;100824.35;;;4.55;100.00
75536;BME280;64119;52.070;20.804;2024-02-21T03:08:37;100824.68;;;4.55;99.96
75536;BME280;64119;52.070;20.804;2024-02-21T03:11:05;100828.02;;;4.55;99.98
75536;BME280;64119;52.070;20.804;2024-02-21T03:13:33;100824.35;;;4.55;100.00
75536;BME280;64119;52.070;20.804;2024-02-21T03:16:01;100824.54;;;4.55;100.00
75536;BME280;64119;52.070;20.804;2024-02-21T03:18:29;100827.64;;;4.56;100.00
75536;BME280;64119;52.070;20.804;2024-02-21T03:20:57;100828.35;;;4.55;100.00
75536;BME280;64119;52.070;20.804;2024-02-21T03:23:24;100826.20;;;4.56;99.99
75536;BME280;64119;52.070;20.804;2024-02-21T03:25:52;100825.17;;;4.56;99.98
75536;BME280;64119;52.070;20.804;2024-02-21T03:28:20;100828.46;;;4.56;100.00
75536;BME280;64119;52.070;20.804;2024-02-21T03:30:48;100826.80;;;4.57;100.00
75536;BME280;64119;52.070;20.804;2024-02-21T03:33:16;100824.35;;;4.57;99.98
75536;BME280;64119;52.070;20.804;2024-02-21T03:35:43;100827.89;;;4.56;100.00
75536;BME280;64119;52.070;20.804;2024-02-21T03:38:11;100822.98;;;4.57;100.00
75536;BME280;64119;52.070;20.804;2024-02-21T03:40:39;100823.21;;;4.56;100.00
75536;BME280;64119;52.070;20.804;2024-02-21T03:43:07;100822.50;;;4.54;100.00
75536;BME280;64119;52.070;20.804;2024-02-21T03:45:35;100822.20;;;4.54;100.00
75536;BME280;64119;52.070;20.804;2024-02-21T03:48:03;100818.68;;;4.52;100.00
75536;BME280;64119;52.070;20.804;2024-02-21T03:50:31;100821.98;;;4.50;100.00
75536;BME280;64119;52.070;20.804;2024-02-21T03:52:59;100823.77;;;4.48;100.00
75536;BME280;64119;52.070;20.804;2024-02-21T03:55:27;100821.41;;;4.45;100.00
75536;BME280;64119;52.070;20.804;2024-02-21T03:57:55;100821.14;;;4.44;100.00
75536;BME280;64119;52.070;20.804;2024-02-21T04:00:23;100817.87;;;4.42;100.00
75536;BME280;64119;52.070;20.804;2024-02-21T04:02:51;100819.02;;;4.39;100.00
75536;BME280;64119;52.070;20.804;2024-02-21T04:05:19;100817.54;;;4.36;100.00
75536;BME280;64119;52.070;20.804;2024-02-21T04:07:47;100815.79;;;4.34;100.00
75536;BME280;64119;52.070;20.804;2024-02-21T04:10:14;100816.80;;;4.30;100.00
75536;BME280;64119;52.070;20.804;2024-02-21T04:12:42;100816.48;;;4.28;100.00
75536;BME280;64119;52.070;20.804;2024-02-21T04:15:10;100816.02;;;4.26;100.00
75536;BME280;64119;52.070;20.804;2024-02-21T04:17:38;100812.23;;;4.23;100.00
75536;BME280;64119;52.070;20.804;2024-02-21T04:20:06;100809.90;;;4.20;100.00
75536;BME280;64119;52.070;20.804;2024-02-21T04:22:36;100812.57;;;4.16;100.00
75536;BME280;64119;52.070;20.804;2024-02-21T04:25:04;100808.02;;;4.12;100.00
75536;BME280;64119;52.070;20.804;2024-02-21T04:27:32;100805.13;;;4.09;99.98
75536;BME280;64119;52.070;20.804;2024-02-21T04:30:01;100801.09;;;4.07;100.00
75536;BME280;64119;52.070;20.804;2024-02-21T04:32:29;100803.08;;;4.06;100.00
75536;BME280;64119;52.070;20.804;2024-02-21T04:34:56;100803.95;;;4.06;100.00
75536;BME280;64119;52.070;20.804;2024-02-21T04:37:24;100802.80;;;4.05;100.00
75536;BME280;64119;52.070;20.804;2024-02-21T04:39:52;100798.97;;;4.04;99.98
75536;BME280;64119;52.070;20.804;2024-02-21T04:42:20;100794.45;;;4.04;100.00
75536;BME280;64119;52.070;20.804;2024-02-21T04:44:48;100791.02;;;4.03;100.00
75536;BME280;64119;52.070;20.804;2024-02-21T04:47:16;100794.97;;;4.04;100.00
75536;BME280;64119;52.070;20.804;2024-02-21T04:49:44;100797.70;;;4.06;100.00
75536;BME280;64119;52.070;20.804;2024-02-21T04:52:12;100803.84;;;4.07;100.00
75536;BME280;64119;52.070;20.804;2024-02-21T04:54:40;100801.29;;;4.09;100.00
75536;BME280;64119;52.070;20.804;2024-02-21T04:57:08;100800.31;;;4.10;100.00
75536;BME280;64119;52.070;20.804;2024-02-21T04:59:37;100795.67;;;4.11;100.00
75536;BME280;64119;52.070;20.804;2024-02-21T05:02:05;100798.92;;;4.12;100.00
75536;BME280;64119;52.070;20.804;2024-02-21T05:04:33;100800.08;;;4.12;100.00
75536;BME280;64119;52.070;20.804;2024-02-21T05:07:01;100796.67;;;4.13;100.00
75536;BME280;64119;52.070;20.804;2024-02-21T05:09:29;100793.55;;;4.15;100.00
75536;BME280;64119;52.070;20.804;2024-02-21T05:11:57;100791.75;;;4.15;100.00
75536;BME280;64119;52.070;20.804;2024-02-21T05:14:26;100787.91;;;4.17;100.00
75536;BME280;64119;52.070;20.804;2024-02-21T05:16:55;100789.70;;;4.19;100.00
75536;BME280;64119;52.070;20.804;2024-02-21T05:19:23;100789.80;;;4.21;100.00
75536;BME280;64119;52.070;20.804;2024-02-21T05:21:51;100786.77;;;4.24;100.00
75536;BME280;64119;52.070;20.804;2024-02-21T05:24:19;100787.09;;;4.26;100.00
75536;BME280;64119;52.070;20.804;2024-02-21T05:26:46;100784.17;;;4.29;100.00
75536;BME280;64119;52.070;20.804;2024-02-21T05:29:15;100786.21;;;4.32;100.00
75536;BME280;64119;52.070;20.804;2024-02-21T05:32:03;100784.95;;;4.34;100.00
75536;BME280;64119;52.070;20.804;2024-02-21T05:34:31;100783.00;;;4.38;100.00
75536;BME280;64119;52.070;20.804;2024-02-21T05:36:59;100783.48;;;4.43;100.00
75536;BME280;64119;52.070;20.804;2024-02-21T05:39:28;100784.55;;;4.46;100.00
75536;BME280;64119;52.070;20.804;2024-02-21T05:41:57;100781.32;;;4.51;100.00
75536;BME280;64119;52.070;20.804;2024-02-21T05:44:25;100776.27;;;4.54;100.00
75536;BME280;64119;52.070;20.804;2024-02-21T05:46:54;100772.80;;;4.58;100.00
75536;BME280;64119;52.070;20.804;2024-02-21T05:49:23;100773.04;;;4.61;100.00
75536;BME280;64119;52.070;20.804;2024-02-21T05:51:51;100769.74;;;4.64;100.00
75536;BME280;64119;52.070;20.804;2024-02-21T05:54:19;100774.77;;;4.66;100.00
75536;BME280;64119;52.070;20.804;2024-02-21T05:56:47;100773.94;;;4.68;100.00
75536;BME280;64119;52.070;20.804;2024-02-21T05:59:15;100771.73;;;4.69;100.00
75536;BME280;64119;52.070;20.804;2024-02-21T06:01:42;100772.61;;;4.73;100.00
75536;BME280;64119;52.070;20.804;2024-02-21T06:04:10;100767.90;;;4.75;100.00
75536;BME280;64119;52.070;20.804;2024-02-21T06:06:38;100761.78;;;4.78;100.00
75536;BME280;64119;52.070;20.804;2024-02-21T06:09:06;100760.52;;;4.82;100.00
75536;BME280;64119;52.070;20.804;2024-02-21T06:11:34;100766.23;;;4.85;100.00
75536;BME280;64119;52.070;20.804;2024-02-21T06:14:05;100768.60;;;4.88;100.00
75536;BME280;64119;52.070;20.804;2024-02-21T06:16:33;100767.17;;;4.92;100.00
75536;BME280;64119;52.070;20.804;2024-02-21T06:19:01;100768.61;;;4.95;100.00
75536;BME280;64119;52.070;20.804;2024-02-21T06:21:31;100774.19;;;4.99;100.00
75536;BME280;64119;52.070;20.804;2024-02-21T06:23:59;100767.92;;;5.02;100.00
75536;BME280;64119;52.070;20.804;2024-02-21T06:26:27;100767.20;;;5.06;100.00
75536;BME280;64119;52.070;20.804;2024-02-21T06:28:54;100766.77;;;5.11;100.00
75536;BME280;64119;52.070;20.804;2024-02-21T06:31:22;100770.83;;;5.14;100.00
75536;BME280;64119;52.070;20.804;2024-02-21T06:33:50;100771.67;;;5.18;100.00
75536;BME280;64119;52.070;20.804;2024-02-21T06:36:18;100775.64;;;5.22;100.00
75536;BME280;64119;52.070;20.804;2024-02-21T06:38:46;100774.46;;;5.27;100.00
75536;BME280;64119;52.070;20.804;2024-02-21T06:41:18;100777.35;;;5.30;100.00
75536;BME280;64119;52.070;20.804;2024-02-21T06:43:47;100778.77;;;5.34;100.00
75536;BME280;64119;52.070;20.804;2024-02-21T06:46:26;100778.80;;;5.37;100.00
75536;BME280;64119;52.070;20.804;2024-02-21T06:48:54;100780.65;;;5.42;100.00
75536;BME280;64119;52.070;20.804;2024-02-21T06:51:24;100782.25;;;5.47;100.00
75536;BME280;64119;52.070;20.804;2024-02-21T06:53:53;100780.91;;;5.52;100.00
75536;BME280;64119;52.070;20.804;2024-02-21T06:56:24;100784.19;;;5.56;100.00
75536;BME280;64119;52.070;20.804;2024-02-21T06:58:56;100784.36;;;5.60;100.00
75536;BME280;64119;52.070;20.804;2024-02-21T07:01:24;100783.50;;;5.63;100.00
75536;BME280;64119;52.070;20.804;2024-02-21T07:03:52;100785.20;;;5.68;100.00
75536;BME280;64119;52.070;20.804;2024-02-21T07:06:20;100781.05;;;5.70;100.00
75536;BME280;64119;52.070;20.804;2024-02-21T07:08:48;100782.48;;;5.76;100.00
75536;BME280;64119;52.070;20.804;2024-02-21T07:11:16;100782.26;;;5.78;100.00
75536;BME280;64119;52.070;20.804;2024-02-21T07:13:44;100779.61;;;5.80;100.00
75536;BME280;64119;52.070;20.804;2024-02-21T07:16:12;100781.65;;;5.80;100.00
75536;BME280;64119;52.070;20.804;2024-02-21T07:18:40;100780.92;;;5.83;100.00
75536;BME280;64119;52.070;20.804;2024-02-21T07:21:08;100778.61;;;5.85;100.00
75536;BME280;64119;52.070;20.804;2024-02-21T07:23:35;100778.89;;;5.86;100.00
75536;BME280;64119;52.070;20.804;2024-02-21T07:26:04;100778.27;;;5.87;100.00
75536;BME280;64119;52.070;20.804;2024-02-21T07:28:32;100775.77;;;5.87;100.00
75536;BME280;64119;52.070;20.804;2024-02-21T07:31:00;100771.39;;;5.87;100.00
75536;BME280;64119;52.070;20.804;2024-02-21T07:33:27;100765.84;;;5.88;100.00
75536;BME280;64119;52.070;20.804;2024-02-21T07:35:55;100768.55;;;5.89;100.00
75536;BME280;64119;52.070;20.804;2024-02-21T07:38:23;100764.34;;;5.89;100.00
75536;BME280;64119;52.070;20.804;2024-02-21T07:40:51;100762.45;;;5.90;100.00
75536;BME280;64119;52.070;20.804;2024-02-21T07:43:19;100755.87;;;5.91;100.00
75536;BME280;64119;52.070;20.804;2024-02-21T07:45:47;100756.16;;;5.94;100.00
75536;BME280;64119;52.070;20.804;2024-02-21T07:48:19;100748.30;;;5.97;100.00
75536;BME280;64119;52.070;20.804;2024-02-21T07:50:47;100747.80;;;6.00;100.00
75536;BME280;64119;52.070;20.804;2024-02-21T07:53:16;100738.54;;;6.05;100.00
75536;BME280;64119;52.070;20.804;2024-02-21T07:55:44;100733.12;;;6.10;100.00
75536;BME280;64119;52.070;20.804;2024-02-21T07:58:12;100729.76;;;6.18;100.00
75536;BME280;64119;52.070;20.804;2024-02-21T08:00:40;100724.16;;;6.24;100.00
75536;BME280;64119;52.070;20.804;2024-02-21T08:03:08;100718.18;;;6.29;100.00
75536;BME280;64119;52.070;20.804;2024-02-21T08:05:36;100717.08;;;6.35;99.93
75536;BME280;64119;52.070;20.804;2024-02-21T08:08:04;100717.13;;;6.38;99.76
75536;BME280;64119;52.070;20.804;2024-02-21T08:10:32;100714.80;;;6.40;99.42
75536;BME280;64119;52.070;20.804;2024-02-21T08:13:00;100713.35;;;6.43;99.51
75536;BME280;64119;52.070;20.804;2024-02-21T08:15:28;100706.95;;;6.45;99.22
75536;BME280;64119;52.070;20.804;2024-02-21T08:17:58;100703.05;;;6.49;99.26
75536;BME280;64119;52.070;20.804;2024-02-21T08:20:31;100704.13;;;6.55;99.15
75536;BME280;64119;52.070;20.804;2024-02-21T08:23:00;100703.85;;;6.63;98.84
75536;BME280;64119;52.070;20.804;2024-02-21T08:25:28;100701.95;;;6.72;98.52
75536;BME280;64119;52.070;20.804;2024-02-21T08:27:58;100703.15;;;6.79;98.25
75536;BME280;64119;52.070;20.804;2024-02-21T08:30:26;100700.48;;;6.86;97.94
75536;BME280;64119;52.070;20.804;2024-02-21T08:32:54;100696.04;;;6.93;97.95
75536;BME280;64119;52.070;20.804;2024-02-21T08:35:22;100697.02;;;7.01;97.79
75536;BME280;64119;52.070;20.804;2024-02-21T08:37:50;100697.28;;;7.10;97.57
75536;BME280;64119;52.070;20.804;2024-02-21T08:40:18;100696.67;;;7.21;97.15
75536;BME280;64119;52.070;20.804;2024-02-21T08:42:49;100697.38;;;7.31;96.25
75536;BME280;64119;52.070;20.804;2024-02-21T08:45:18;100694.47;;;7.37;96.29
75536;BME280;64119;52.070;20.804;2024-02-21T08:47:45;100695.34;;;7.41;96.09
75536;BME280;64119;52.070;20.804;2024-02-21T08:50:13;100694.23;;;7.46;96.13
75536;BME280;64119;52.070;20.804;2024-02-21T08:52:54;100691.08;;;7.49;96.00
75536;BME280;64119;52.070;20.804;2024-02-21T08:55:23;100691.20;;;7.53;96.06
75536;BME280;64119;52.070;20.804;2024-02-21T08:57:52;100691.45;;;7.55;96.05
75536;BME280;64119;52.070;20.804;2024-02-21T09:00:20;100690.14;;;7.56;95.84
75536;BME280;64119;52.070;20.804;2024-02-21T09:02:54;100685.29;;;7.55;95.51
75536;BME280;64119;52.070;20.804;2024-02-21T09:05:24;100681.63;;;7.59;95.69
75536;BME280;64119;52.070;20.804;2024-02-21T09:07:53;100679.53;;;7.60;95.15
75536;BME280;64119;52.070;20.804;2024-02-21T09:10:21;100675.39;;;7.61;95.03
75536;BME280;64119;52.070;20.804;2024-02-21T09:12:49;100675.73;;;7.59;95.03
75536;BME280;64119;52.070;20.804;2024-02-21T09:15:17;100676.71;;;7.58;94.88
75536;BME280;64119;52.070;20.804;2024-02-21T09:17:45;100678.29;;;7.54;95.14
75536;BME280;64119;52.070;20.804;2024-02-21T09:20:12;100673.19;;;7.48;95.15
75536;BME280;64119;52.070;20.804;2024-02-21T09:22:44;100673.48;;;7.49;95.78
75536;BME280;64119;52.070;20.804;2024-02-21T09:25:12;100672.83;;;7.52;95.38
75536;BME280;64119;52.070;20.804;2024-02-21T09:27:40;100669.17;;;7.52;94.93
75536;BME280;64119;52.070;20.804;2024-02-21T09:30:08;100668.26;;;7.52;95.08
75536;BME280;64119;52.070;20.804;2024-02-21T09:32:36;100668.29;;;7.55;94.73
75536;BME280;64119;52.070;20.804;2024-02-21T09:35:05;100663.55;;;7.56;94.49
75536;BME280;64119;52.070;20.804;2024-02-21T09:37:33;100665.49;;;7.58;94.38
75536;BME280;64119;52.070;20.804;2024-02-21T09:40:02;100667.22;;;7.60;94.31
75536;BME280;64119;52.070;20.804;2024-02-21T09:42:37;100672.20;;;7.64;93.59
75536;BME280;64119;52.070;20.804;2024-02-21T09:45:08;100665.38;;;7.64;93.31
75536;BME280;64119;52.070;20.804;2024-02-21T09:47:59;100666.38;;;7.69;93.65
75536;BME280;64119;52.070;20.804;2024-02-21T09:50:32;100667.91;;;7.78;92.93
75536;BME280;64119;52.070;20.804;2024-02-21T09:53:02;100660.62;;;7.83;92.97
75536;BME280;64119;52.070;20.804;2024-02-21T09:55:33;100660.80;;;7.88;93.00
75536;BME280;64119;52.070;20.804;2024-02-21T09:58:02;100657.06;;;7.93;92.47
75536;BME280;64119;52.070;20.804;2024-02-21T10:00:32;100657.83;;;7.96;92.50
75536;BME280;64119;52.070;20.804;2024-02-21T10:02:59;100653.73;;;7.95;92.01
75536;BME280;64119;52.070;20.804;2024-02-21T10:05:27;100652.91;;;7.96;92.14
75536;BME280;64119;52.070;20.804;2024-02-21T10:07:56;100655.34;;;7.96;91.95
75536;BME280;64119;52.070;20.804;2024-02-21T10:10:24;100649.27;;;7.94;91.70
75536;BME280;64119;52.070;20.804;2024-02-21T10:12:52;100643.26;;;7.92;91.89
75536;BME280;64119;52.070;20.804;2024-02-21T10:15:24;100640.45;;;7.92;92.40
75536;BME280;64119;52.070;20.804;2024-02-21T10:17:59;100642.64;;;7.95;92.11
75536;BME280;64119;52.070;20.804;2024-02-21T10:20:28;100637.65;;;7.94;91.84
75536;BME280;64119;52.070;20.804;2024-02-21T10:23:03;100636.59;;;7.94;91.70
75536;BME280;64119;52.070;20.804;2024-02-21T10:25:38;100634.67;;;7.93;91.77
75536;BME280;64119;52.070;20.804;2024-02-21T10:28:12;100632.59;;;7.93;91.95
75536;BME280;64119;52.070;20.804;2024-02-21T10:30:50;100635.07;;;7.95;92.05
75536;BME280;64119;52.070;20.804;2024-02-21T10:33:18;100632.14;;;7.96;92.33
75536;BME280;64119;52.070;20.804;2024-02-21T10:35:50;100630.40;;;7.99;92.32
75536;BME280;64119;52.070;20.804;2024-02-21T10:38:17;100631.45;;;8.02;92.14
75536;BME280;64119;52.070;20.804;2024-02-21T10:40:46;100632.16;;;8.06;92.02
75536;BME280;64119;52.070;20.804;2024-02-21T10:43:15;100621.89;;;8.05;92.21
75536;BME280;64119;52.070;20.804;2024-02-21T10:45:47;100621.80;;;8.09;92.39
75536;BME280;64119;52.070;20.804;2024-02-21T10:48:27;100621.17;;;8.15;92.09
75536;BME280;64119;52.070;20.804;2024-02-21T10:50:57;100617.34;;;8.11;91.80
75536;BME280;64119;52.070;20.804;2024-02-21T10:56:28;100611.52;;;8.11;92.15
75536;BME280;64119;52.070;20.804;2024-02-21T10:58:58;100606.94;;;8.13;91.49
75536;BME280;64119;52.070;20.804;2024-02-21T11:01:26;100601.36;;;8.11;91.51
75536;BME280;64119;52.070;20.804;2024-02-21T11:04:02;100593.96;;;8.09;91.82
75536;BME280;64119;52.070;20.804;2024-02-21T11:06:31;100596.63;;;8.12;91.87
75536;BME280;64119;52.070;20.804;2024-02-21T11:09:03;100590.35;;;8.14;92.01
75536;BME280;64119;52.070;20.804;2024-02-21T11:11:43;100587.73;;;8.19;91.88
75536;BME280;64119;52.070;20.804;2024-02-21T11:14:18;100587.30;;;8.21;91.61
75536;BME280;64119;52.070;20.804;2024-02-21T11:16:46;100584.20;;;8.21;91.41
75536;BME280;64119;52.070;20.804;2024-02-21T11:19:22;100581.36;;;8.16;91.97
75536;BME280;64119;52.070;20.804;2024-02-21T11:21:53;100583.02;;;8.12;91.96
75536;BME280;64119;52.070;20.804;2024-02-21T11:24:33;100576.79;;;8.08;91.99
75536;BME280;64119;52.070;20.804;2024-02-21T11:27:09;100574.41;;;8.04;92.15
75536;BME280;64119;52.070;20.804;2024-02-21T11:29:42;100568.77;;;7.97;92.84
75536;BME280;64119;52.070;20.804;2024-02-21T11:32:11;100564.31;;;7.91;92.87
75536;BME280;64119;52.070;20.804;2024-02-21T11:34:39;100561.84;;;7.85;93.25
75536;BME280;64119;52.070;20.804;2024-02-21T11:37:14;100560.26;;;7.82;93.52
75536;BME280;64119;52.070;20.804;2024-02-21T11:39:45;100559.80;;;7.79;93.93
75536;BME280;64119;52.070;20.804;2024-02-21T11:42:14;100563.73;;;7.76;94.18
75536;BME280;64119;52.070;20.804;2024-02-21T11:44:42;100565.77;;;7.72;94.12
75536;BME280;64119;52.070;20.804;2024-02-21T11:47:10;100563.04;;;7.70;94.40
75536;BME280;64119;52.070;20.804;2024-02-21T11:49:43;100559.94;;;7.65;94.97
75536;BME280;64119;52.070;20.804;2024-02-21T11:52:13;100556.99;;;7.62;94.88
75536;BME280;64119;52.070;20.804;2024-02-21T11:54:43;100554.90;;;7.58;95.00
75536;BME280;64119;52.070;20.804;2024-02-21T11:57:11;100552.85;;;7.56;95.35
75536;BME280;64119;52.070;20.804;2024-02-21T11:59:40;100552.10;;;7.55;95.37
75536;BME280;64119;52.070;20.804;2024-02-21T12:02:09;100548.14;;;7.54;95.76
75536;BME280;64119;52.070;20.804;2024-02-21T12:04:37;100536.19;;;7.49;96.09
75536;BME280;64119;52.070;20.804;2024-02-21T12:07:06;100538.86;;;7.51;96.21
75536;BME280;64119;52.070;20.804;2024-02-21T12:09:34;100537.19;;;7.51;96.30
75536;BME280;64119;52.070;20.804;2024-02-21T12:12:04;100533.13;;;7.52;96.29
75536;BME280;64119;52.070;20.804;2024-02-21T12:14:34;100531.67;;;7.52;96.50
75536;BME280;64119;52.070;20.804;2024-02-21T12:17:03;100531.86;;;7.52;96.68
75536;BME280;64119;52.070;20.804;2024-02-21T12:19:33;100528.48;;;7.51;96.70
75536;BME280;64119;52.070;20.804;2024-02-21T12:22:02;100528.20;;;7.48;97.12
75536;BME280;64119;52.070;20.804;2024-02-21T12:24:34;100524.41;;;7.47;96.87
75536;BME280;64119;52.070;20.804;2024-02-21T12:27:03;100523.09;;;7.45;97.18
75536;BME280;64119;52.070;20.804;2024-02-21T12:29:31;100523.49;;;7.43;97.26
75536;BME280;64119;52.070;20.804;2024-02-21T12:32:00;100525.80;;;7.41;97.37
75536;BME280;64119;52.070;20.804;2024-02-21T12:34:28;100522.87;;;7.38;97.87
75536;BME280;64119;52.070;20.804;2024-02-21T12:37:15;100523.45;;;7.37;97.81
75536;BME280;64119;52.070;20.804;2024-02-21T12:39:43;100513.98;;;7.35;97.90
75536;BME280;64119;52.070;20.804;2024-02-21T12:42:11;100509.36;;;7.35;97.80
75536;BME280;64119;52.070;20.804;2024-02-21T12:44:39;100506.27;;;7.36;98.35
75536;BME280;64119;52.070;20.804;2024-02-21T12:47:07;100504.09;;;7.34;98.40
75536;BME280;64119;52.070;20.804;2024-02-21T12:49:36;100502.60;;;7.33;98.41
75536;BME280;64119;52.070;20.804;2024-02-21T12:52:05;100499.92;;;7.31;98.94
75536;BME280;64119;52.070;20.804;2024-02-21T12:54:33;100494.73;;;7.31;98.81
75536;BME280;64119;52.070;20.804;2024-02-21T12:57:01;100493.03;;;7.32;99.11